createdAt,value
2022-07-25T00:01:08.774Z,6.17
2022-07-25T00:03:37.599Z,5.90
2022-07-25T00:06:06.469Z,5.67
2022-07-25T00:08:40.696Z,5.53
2022-07-25T00:11:07.844Z,5.23
2022-07-25T00:13:34.900Z,5.93
2022-07-25T00:16:01.941Z,5.80
2022-07-25T00:18:29.037Z,5.60
2022-07-25T00:20:56.040Z,4.90
2022-07-25T00:23:23.040Z,5.53
2022-07-25T00:25:50.098Z,5.87
2022-07-25T00:28:17.076Z,5.27
2022-07-25T00:30:44.298Z,5.60
2022-07-25T00:33:11.377Z,5.50
2022-07-25T00:35:38.332Z,5.80
2022-07-25T00:38:05.339Z,5.33
2022-07-25T00:40:32.314Z,6.00
2022-07-25T00:42:59.314Z,5.53
2022-07-25T00:45:26.476Z,5.63
2022-07-25T00:47:53.610Z,5.40
2022-07-25T00:50:20.694Z,5.00
2022-07-25T00:52:48.320Z,5.77
2022-07-25T00:55:15.711Z,4.97
2022-07-25T00:57:42.708Z,5.40
2022-07-25T01:00:13.616Z,5.40
2022-07-25T01:02:41.710Z,5.00
2022-07-25T01:05:09.266Z,5.03
2022-07-25T01:07:40.047Z,5.40
2022-07-25T01:10:08.281Z,5.07
2022-07-25T01:12:55.430Z,5.40
2022-07-25T01:15:23.990Z,5.53
2022-07-25T01:17:51.199Z,4.73
2022-07-25T01:20:19.919Z,5.67
2022-07-25T01:22:48.066Z,5.13
2022-07-25T01:25:15.807Z,5.60
2022-07-25T01:27:44.044Z,4.87
2022-07-25T01:30:14.406Z,5.00
2022-07-25T01:32:41.976Z,4.93
2022-07-25T01:35:10.431Z,4.80
2022-07-25T01:37:37.719Z,5.17
2022-07-25T01:40:05.699Z,5.93
2022-07-25T01:42:32.844Z,4.87
2022-07-25T01:45:00.030Z,5.43
2022-07-25T01:47:27.071Z,5.33
2022-07-25T01:49:54.095Z,5.00
2022-07-25T01:52:21.239Z,5.83
2022-07-25T01:54:48.155Z,5.13
2022-07-25T01:57:15.400Z,4.70
2022-07-25T01:59:44.059Z,5.23
2022-07-25T02:02:11.212Z,5.20
2022-07-25T02:04:38.428Z,5.10
2022-07-25T02:07:06.181Z,4.90
2022-07-25T02:09:33.495Z,5.40
2022-07-25T02:12:00.536Z,5.53
2022-07-25T02:14:27.743Z,5.10
2022-07-25T02:16:54.743Z,4.73
2022-07-25T02:19:21.871Z,4.97
2022-07-25T02:21:48.846Z,5.53
2022-07-25T02:24:15.899Z,5.53
2022-07-25T02:26:42.956Z,5.07
2022-07-25T02:29:09.966Z,4.90
2022-07-25T02:31:36.971Z,5.67
2022-07-25T02:34:05.239Z,4.97
2022-07-25T02:36:32.698Z,4.97
2022-07-25T02:38:59.673Z,5.77
2022-07-25T02:41:26.720Z,5.27
2022-07-25T02:43:53.717Z,4.93
2022-07-25T02:46:20.795Z,5.47
2022-07-25T02:48:47.987Z,5.13
2022-07-25T02:51:15.020Z,5.33
2022-07-25T02:53:58.682Z,4.90
2022-07-25T02:56:30.239Z,5.17
2022-07-25T02:58:59.578Z,5.10
2022-07-25T03:01:27.360Z,5.17
2022-07-25T03:03:54.504Z,5.57
2022-07-25T03:06:21.599Z,5.20
2022-07-25T03:08:48.665Z,4.80
2022-07-25T03:11:17.022Z,7.03
2022-07-25T03:13:44.019Z,5.23
2022-07-25T03:16:11.227Z,5.67
2022-07-25T03:18:38.262Z,4.60
2022-07-25T03:21:05.558Z,5.77
2022-07-25T03:23:32.642Z,4.73
2022-07-25T03:26:00.236Z,6.00
2022-07-25T03:28:27.261Z,5.70
2022-07-25T03:30:54.559Z,5.33
2022-07-25T03:33:21.637Z,5.77
2022-07-25T03:35:48.879Z,5.17
2022-07-25T03:38:15.943Z,5.23
2022-07-25T03:40:42.906Z,6.40
2022-07-25T03:43:10.210Z,5.07
2022-07-25T03:45:37.273Z,5.23
2022-07-25T03:48:04.658Z,4.93
2022-07-25T03:50:31.859Z,5.57
2022-07-25T03:52:59.022Z,5.50
2022-07-25T03:55:26.088Z,5.57
2022-07-25T03:57:53.103Z,5.00
2022-07-25T04:00:20.098Z,5.27
2022-07-25T04:02:47.120Z,5.90
2022-07-25T04:05:14.181Z,5.03
2022-07-25T04:07:41.208Z,5.00
2022-07-25T04:10:09.049Z,5.33
2022-07-25T04:12:36.089Z,5.73
2022-07-25T04:15:03.269Z,5.33
2022-07-25T04:17:30.267Z,4.70
2022-07-25T04:19:57.476Z,4.80
2022-07-25T04:22:24.523Z,5.20
2022-07-25T04:24:51.569Z,5.40
2022-07-25T04:27:18.670Z,6.00
2022-07-25T04:29:45.700Z,5.50
2022-07-25T04:32:13.832Z,5.20
2022-07-25T04:34:41.059Z,5.10
2022-07-25T04:37:08.071Z,4.77
2022-07-25T04:39:35.126Z,5.13
2022-07-25T04:42:02.174Z,5.00
2022-07-25T04:44:29.148Z,5.50
2022-07-25T04:46:56.081Z,4.80
2022-07-25T04:49:23.063Z,5.23
2022-07-25T04:51:50.049Z,5.20
2022-07-25T04:54:17.020Z,5.07
2022-07-25T04:56:44.035Z,4.77
2022-07-25T04:59:11.000Z,5.37
2022-07-25T05:01:38.071Z,4.70
2022-07-25T05:04:05.555Z,4.90
2022-07-25T05:06:33.499Z,4.87
2022-07-25T05:09:00.515Z,5.50
2022-07-25T05:11:27.558Z,5.10
2022-07-25T05:13:54.573Z,5.10
2022-07-25T05:16:21.726Z,5.20
2022-07-25T05:18:48.730Z,5.30
2022-07-25T05:21:15.728Z,5.47
2022-07-25T05:23:42.735Z,4.67
2022-07-25T05:26:09.801Z,5.10
2022-07-25T05:28:36.859Z,5.67
2022-07-25T05:31:04.938Z,5.73
2022-07-25T05:33:32.060Z,5.27
2022-07-25T05:35:59.141Z,5.00
2022-07-25T05:38:26.156Z,5.30
2022-07-25T05:40:53.290Z,5.40
2022-07-25T05:43:20.375Z,5.60
2022-07-25T05:45:50.629Z,5.00
2022-07-25T05:48:17.631Z,5.33
2022-07-25T05:50:46.186Z,4.60
2022-07-25T05:53:13.198Z,5.50
2022-07-25T05:55:41.032Z,5.10
2022-07-25T05:58:09.843Z,6.47
2022-07-25T06:00:37.782Z,6.37
2022-07-25T06:03:05.192Z,5.40
2022-07-25T06:05:32.666Z,5.30
2022-07-25T06:07:59.710Z,5.90
2022-07-25T06:10:26.679Z,5.93
2022-07-25T06:12:53.941Z,6.50
2022-07-25T06:15:22.882Z,5.20
2022-07-25T06:17:53.774Z,5.83
2022-07-25T06:20:20.842Z,6.17
2022-07-25T06:22:47.939Z,5.80
2022-07-25T06:25:15.382Z,5.90
2022-07-25T06:27:42.456Z,5.93
2022-07-25T06:30:19.077Z,5.90
2022-07-25T06:32:48.077Z,5.43
2022-07-25T06:35:15.255Z,5.50
2022-07-25T06:37:42.241Z,5.10
2022-07-25T06:40:10.048Z,5.30
2022-07-25T06:42:41.339Z,5.50
2022-07-25T06:45:10.946Z,5.53
2022-07-25T06:47:40.709Z,5.67
2022-07-25T06:50:11.427Z,5.67
2022-07-25T06:52:39.729Z,6.60
2022-07-25T06:55:08.078Z,5.80
2022-07-25T06:57:35.558Z,6.23
2022-07-25T07:00:09.382Z,6.17
2022-07-25T07:02:50.949Z,5.83
2022-07-25T07:05:18.158Z,5.53
2022-07-25T07:07:47.757Z,5.80
2022-07-25T07:10:17.120Z,5.40
2022-07-25T07:12:44.491Z,5.03
2022-07-25T07:15:12.681Z,5.30
2022-07-25T07:17:39.742Z,5.10
2022-07-25T07:20:08.674Z,4.97
2022-07-25T07:22:47.579Z,5.30
2022-07-25T07:25:16.227Z,5.47
2022-07-25T07:27:44.567Z,4.93
2022-07-25T07:30:14.998Z,4.90
2022-07-25T07:32:43.225Z,5.60
2022-07-25T07:35:12.579Z,5.10
2022-07-25T07:37:43.499Z,5.40
2022-07-25T07:40:17.227Z,4.97
2022-07-25T07:42:47.114Z,5.37
2022-07-25T07:45:20.374Z,4.77
2022-07-25T07:47:48.910Z,4.43
2022-07-25T07:50:18.678Z,4.50
2022-07-25T07:52:46.746Z,4.57
2022-07-25T07:55:34.971Z,4.57
2022-07-25T07:58:02.177Z,4.40
2022-07-25T08:00:34.151Z,4.40
2022-07-25T08:03:01.786Z,4.57
2022-07-25T08:05:40.881Z,4.30
2022-07-25T08:08:09.689Z,4.30
2022-07-25T08:10:39.252Z,4.77
2022-07-25T08:13:19.918Z,4.10
2022-07-25T08:15:49.018Z,4.30
2022-07-25T08:18:17.839Z,3.93
2022-07-25T08:20:46.146Z,4.17
2022-07-25T08:23:13.760Z,4.43
2022-07-25T08:25:41.517Z,4.70
2022-07-25T08:28:08.532Z,4.60
2022-07-25T08:30:37.315Z,4.10
2022-07-25T08:33:07.054Z,4.33
2022-07-25T08:35:34.904Z,4.23
2022-07-25T08:38:03.457Z,4.00
2022-07-25T08:40:32.061Z,4.30
2022-07-25T08:43:00.045Z,4.30
2022-07-25T08:45:28.807Z,4.03
2022-07-25T08:47:56.547Z,4.23
2022-07-25T08:50:25.935Z,3.93
2022-07-25T08:53:10.011Z,4.23
2022-07-25T08:55:40.572Z,5.10
2022-07-25T08:58:07.621Z,4.93
2022-07-25T09:00:34.574Z,4.00
2022-07-25T09:03:04.096Z,3.73
2022-07-25T09:05:32.583Z,4.00
2022-07-25T09:08:10.796Z,4.23
2022-07-25T09:10:39.433Z,3.80
2022-07-25T09:13:14.246Z,3.90
2022-07-25T09:16:00.658Z,4.10
2022-07-25T09:18:28.295Z,4.20
2022-07-25T09:21:00.226Z,4.77
2022-07-25T09:23:35.141Z,4.37
2022-07-25T09:26:13.520Z,4.43
2022-07-25T09:28:42.598Z,4.00
2022-07-25T09:31:10.460Z,4.50
2022-07-25T09:33:51.919Z,3.93
2022-07-25T09:36:19.238Z,5.00
2022-07-25T09:39:01.392Z,3.90
2022-07-25T09:41:41.839Z,4.60
2022-07-25T09:44:30.398Z,4.00
2022-07-25T09:46:59.455Z,4.67
2022-07-25T09:49:37.160Z,4.43
2022-07-25T09:52:04.494Z,4.40
2022-07-25T09:54:32.961Z,4.80
2022-07-25T09:56:59.939Z,5.57
2022-07-25T09:59:27.046Z,4.97
2022-07-25T10:02:18.291Z,5.00
2022-07-25T10:04:57.286Z,4.90
2022-07-25T10:07:29.445Z,5.07
2022-07-25T10:09:59.839Z,4.80
2022-07-25T10:12:26.887Z,5.07
2022-07-25T10:15:06.566Z,5.30
2022-07-25T10:17:34.092Z,5.10
2022-07-25T10:20:01.546Z,5.60
2022-07-25T10:22:56.805Z,5.60
2022-07-25T10:25:24.645Z,5.30
2022-07-25T10:28:00.231Z,5.47
2022-07-25T10:30:34.019Z,5.33
2022-07-25T10:33:06.865Z,5.37
2022-07-25T10:35:33.909Z,5.93
2022-07-25T10:38:04.746Z,6.00
2022-07-25T10:40:48.243Z,5.77
2022-07-25T10:43:20.379Z,6.20
2022-07-25T10:45:54.059Z,5.70
2022-07-25T10:48:23.008Z,6.00
2022-07-25T10:50:55.869Z,6.80
2022-07-25T10:53:38.733Z,5.90
2022-07-25T10:56:27.405Z,6.87
2022-07-25T10:58:54.376Z,6.10
2022-07-25T11:01:28.480Z,7.30
2022-07-25T11:03:59.418Z,6.40
2022-07-25T11:06:44.550Z,7.30
2022-07-25T11:09:27.420Z,6.67
2022-07-25T11:11:59.898Z,7.30
2022-07-25T11:14:32.932Z,6.80
2022-07-25T11:17:20.039Z,6.07
2022-07-25T11:20:07.414Z,7.73
2022-07-25T11:22:35.420Z,7.20
2022-07-25T11:25:09.804Z,6.63
2022-07-25T11:27:36.780Z,7.70
2022-07-25T11:30:21.736Z,7.60
2022-07-25T11:32:56.079Z,7.27
2022-07-25T11:35:28.084Z,7.10
2022-07-25T11:37:56.207Z,7.50
2022-07-25T11:40:25.874Z,6.50
2022-07-25T11:42:59.864Z,7.50
2022-07-25T11:45:28.509Z,7.10
2022-07-25T11:48:12.209Z,7.30
2022-07-25T11:50:41.872Z,6.57
2022-07-25T11:53:10.893Z,6.27
2022-07-25T11:55:42.983Z,7.20
2022-07-25T11:58:13.158Z,6.57
2022-07-25T12:00:51.109Z,6.43
2022-07-25T12:03:23.294Z,6.60
2022-07-25T12:05:51.314Z,7.00
2022-07-25T12:08:20.877Z,6.60
2022-07-25T12:10:50.680Z,6.57
2022-07-25T12:13:30.978Z,6.97
2022-07-25T12:15:59.424Z,6.87
2022-07-25T12:18:26.830Z,6.50
2022-07-25T12:20:53.953Z,5.80
2022-07-25T12:23:22.034Z,6.70
2022-07-25T12:25:49.398Z,6.27
2022-07-25T12:28:17.054Z,6.43
2022-07-25T12:30:45.239Z,6.70
2022-07-25T12:33:13.184Z,6.63
2022-07-25T12:35:44.189Z,6.20
2022-07-25T12:38:11.451Z,5.83
2022-07-25T12:40:38.985Z,5.90
2022-07-25T12:43:06.612Z,6.53
2022-07-25T12:45:33.818Z,6.30
2022-07-25T12:48:00.915Z,6.20
2022-07-25T12:50:27.887Z,6.20
2022-07-25T12:52:55.427Z,6.07
2022-07-25T12:55:22.807Z,6.70
2022-07-25T12:57:50.426Z,6.27
2022-07-25T13:00:22.195Z,6.30
2022-07-25T13:02:55.828Z,5.93
2022-07-25T13:05:25.667Z,5.97
2022-07-25T13:07:52.795Z,6.37
2022-07-25T13:10:20.663Z,6.80
2022-07-25T13:12:47.848Z,6.37
2022-07-25T13:15:15.617Z,5.43
2022-07-25T13:17:42.617Z,6.30
2022-07-25T13:20:10.812Z,6.47
2022-07-25T13:22:38.017Z,6.63
2022-07-25T13:25:05.761Z,6.20
2022-07-25T13:27:32.892Z,6.37
2022-07-25T13:30:00.140Z,6.43
2022-07-25T13:32:28.592Z,5.93
2022-07-25T13:34:55.914Z,6.03
2022-07-25T13:37:23.498Z,5.90
2022-07-25T13:39:50.528Z,6.00
2022-07-25T13:42:17.629Z,6.30
2022-07-25T13:44:44.593Z,6.93
2022-07-25T13:47:11.707Z,6.47
2022-07-25T13:49:39.023Z,6.27
2022-07-25T13:52:06.461Z,6.33
2022-07-25T13:54:33.616Z,6.67
2022-07-25T13:57:02.562Z,6.70
2022-07-25T13:59:30.183Z,6.90
2022-07-25T14:01:57.362Z,6.47
2022-07-25T14:04:24.665Z,6.73
2022-07-25T14:06:52.332Z,6.70
2022-07-25T14:09:21.014Z,6.97
2022-07-25T14:11:48.751Z,6.50
2022-07-25T14:14:15.822Z,6.73
2022-07-25T14:16:43.089Z,6.17
2022-07-25T14:19:10.856Z,6.70
2022-07-25T14:21:38.152Z,6.27
2022-07-25T14:24:05.542Z,6.30
2022-07-25T14:26:34.313Z,7.13
2022-07-25T14:29:01.811Z,6.60
2022-07-25T14:31:28.956Z,6.10
2022-07-25T14:33:56.026Z,7.13
2022-07-25T14:36:23.094Z,6.17
2022-07-25T14:38:50.116Z,6.77
2022-07-25T14:41:17.255Z,6.83
2022-07-25T14:43:44.280Z,6.83
2022-07-25T14:46:11.339Z,7.37
2022-07-25T14:48:39.218Z,6.23
2022-07-25T14:51:07.407Z,6.90
2022-07-25T14:53:35.502Z,6.60
2022-07-25T14:56:04.514Z,6.27
2022-07-25T14:58:33.823Z,6.80
2022-07-25T15:01:01.669Z,6.97
2022-07-25T15:03:28.795Z,7.03
2022-07-25T15:05:55.850Z,7.00
2022-07-25T15:08:22.979Z,6.77
2022-07-25T15:10:49.997Z,6.67
2022-07-25T15:13:32.867Z,6.93
2022-07-25T15:16:01.033Z,7.30
2022-07-25T15:18:28.820Z,6.90
2022-07-25T15:20:55.859Z,6.80
2022-07-25T15:23:25.327Z,6.70
2022-07-25T15:26:03.542Z,6.77
2022-07-25T15:28:35.936Z,7.70
2022-07-25T15:31:04.228Z,7.70
2022-07-25T15:33:31.578Z,6.43
2022-07-25T15:35:58.748Z,7.20
2022-07-25T15:38:25.797Z,6.57
2022-07-25T15:40:52.946Z,6.73
2022-07-25T15:43:20.115Z,7.13
2022-07-25T15:45:47.701Z,6.83
2022-07-25T15:48:16.453Z,6.93
2022-07-25T15:50:46.504Z,6.50
2022-07-25T15:53:13.888Z,6.60
2022-07-25T15:55:41.984Z,6.90
2022-07-25T15:58:10.403Z,6.73
2022-07-25T16:00:38.612Z,6.33
2022-07-25T16:03:06.192Z,6.70
2022-07-25T16:05:33.399Z,7.07
2022-07-25T16:08:01.147Z,7.40
2022-07-25T16:10:32.334Z,6.10
2022-07-25T16:13:00.190Z,7.00
2022-07-25T16:15:28.345Z,7.00
2022-07-25T16:18:01.724Z,7.00
2022-07-25T16:20:31.820Z,7.70
2022-07-25T16:22:59.874Z,6.70
2022-07-25T16:25:28.199Z,6.67
2022-07-25T16:27:55.401Z,7.10
2022-07-25T16:30:22.623Z,6.30
2022-07-25T16:32:49.731Z,6.77
2022-07-25T16:35:16.938Z,6.40
2022-07-25T16:37:44.073Z,6.90
2022-07-25T16:40:12.796Z,6.93
2022-07-25T16:42:39.976Z,6.70
2022-07-25T16:45:07.716Z,6.87
2022-07-25T16:47:34.835Z,6.83
2022-07-25T16:50:02.316Z,6.20
2022-07-25T16:52:29.342Z,6.33
2022-07-25T16:54:56.343Z,7.20
2022-07-25T16:57:24.867Z,6.53
2022-07-25T16:59:53.723Z,6.90
2022-07-25T17:02:26.161Z,6.97
2022-07-25T17:04:54.983Z,8.07
2022-07-25T17:07:22.203Z,7.50
2022-07-25T17:09:49.255Z,6.80
2022-07-25T17:12:17.623Z,6.77
2022-07-25T17:14:45.238Z,6.77
2022-07-25T17:17:12.246Z,6.90
2022-07-25T17:19:42.791Z,6.30
2022-07-25T17:22:10.809Z,7.00
2022-07-25T17:24:39.079Z,6.40
2022-07-25T17:27:07.917Z,7.63
2022-07-25T17:29:35.973Z,6.83
2022-07-25T17:32:03.652Z,7.07
2022-07-25T17:34:30.749Z,7.30
2022-07-25T17:37:03.096Z,6.83
2022-07-25T17:39:31.546Z,7.73
2022-07-25T17:41:59.714Z,7.10
2022-07-25T17:44:27.048Z,7.33
2022-07-25T17:46:54.656Z,8.10
2022-07-25T17:49:22.097Z,6.90
2022-07-25T17:51:49.383Z,6.77
2022-07-25T17:54:16.738Z,7.13
2022-07-25T17:56:45.493Z,7.13
2022-07-25T17:59:13.862Z,7.20
2022-07-25T18:01:41.180Z,6.70
2022-07-25T18:04:08.813Z,7.63
2022-07-25T18:06:36.518Z,7.57
2022-07-25T18:09:03.899Z,7.00
2022-07-25T18:11:30.979Z,6.33
2022-07-25T18:13:59.665Z,7.47
2022-07-25T18:16:26.953Z,6.93
2022-07-25T18:18:54.173Z,7.60
2022-07-25T18:21:21.244Z,7.53
2022-07-25T18:23:48.219Z,7.27
2022-07-25T18:26:15.607Z,8.00
2022-07-25T18:28:42.723Z,7.20
2022-07-25T18:31:10.709Z,7.60
2022-07-25T18:33:37.863Z,7.83
2022-07-25T18:36:07.721Z,7.23
2022-07-25T18:38:35.777Z,8.00
2022-07-25T18:41:26.799Z,8.30
2022-07-25T18:43:51.968Z,7.80
2022-07-25T18:46:19.779Z,7.53
2022-07-25T18:48:47.877Z,8.90
2022-07-25T18:51:14.968Z,7.63
2022-07-25T18:53:47.322Z,7.57
2022-07-25T18:56:15.906Z,8.40
2022-07-25T18:58:43.514Z,8.13
2022-07-25T19:01:10.738Z,7.60
2022-07-25T19:03:37.935Z,8.60
2022-07-25T19:06:07.083Z,7.30
2022-07-25T19:08:34.199Z,8.20
2022-07-25T19:11:01.892Z,8.00
2022-07-25T19:13:48.333Z,7.80
2022-07-25T19:16:16.628Z,8.03
2022-07-25T19:18:43.785Z,9.13
2022-07-25T19:21:10.931Z,8.57
2022-07-25T19:23:37.966Z,8.17
2022-07-25T19:26:05.088Z,7.97
2022-07-25T19:28:32.267Z,8.90
2022-07-25T19:30:59.401Z,9.03
2022-07-25T19:33:34.818Z,8.50
2022-07-25T19:36:04.553Z,8.70
2022-07-25T19:38:31.763Z,8.87
2022-07-25T19:40:59.413Z,9.23
2022-07-25T19:43:26.790Z,8.70
2022-07-25T19:45:54.105Z,8.93
2022-07-25T19:48:24.189Z,9.77
2022-07-25T19:50:53.183Z,9.13
2022-07-25T19:53:22.141Z,9.10
2022-07-25T19:55:52.864Z,8.67
2022-07-25T19:58:19.885Z,8.83
2022-07-25T20:00:46.933Z,9.00
2022-07-25T20:03:13.977Z,9.13
2022-07-25T20:05:41.898Z,9.53
2022-07-25T20:08:08.897Z,9.47
2022-07-25T20:10:35.855Z,8.80
2022-07-25T20:13:03.492Z,9.43
2022-07-25T20:15:30.507Z,10.40
2022-07-25T20:17:57.539Z,9.47
2022-07-25T20:20:26.020Z,9.03
2022-07-25T20:22:53.378Z,8.47
2022-07-25T20:25:20.427Z,9.07
2022-07-25T20:27:49.869Z,9.77
2022-07-25T20:30:18.042Z,10.27
2022-07-25T20:32:45.085Z,9.10
2022-07-25T20:35:12.282Z,9.40
2022-07-25T20:37:39.617Z,9.53
2022-07-25T20:40:07.566Z,10.00
2022-07-25T20:42:37.346Z,9.90
2022-07-25T20:45:06.131Z,9.90
2022-07-25T20:47:34.179Z,9.70
2022-07-25T20:50:02.134Z,9.17
2022-07-25T20:52:30.628Z,9.37
2022-07-25T20:54:57.658Z,9.60
2022-07-25T20:57:25.012Z,9.13
2022-07-25T20:59:52.022Z,9.47
2022-07-25T21:02:19.081Z,9.10
2022-07-25T21:04:48.760Z,9.10
2022-07-25T21:07:19.007Z,9.80
2022-07-25T21:09:46.067Z,9.20
2022-07-25T21:12:13.081Z,9.70
2022-07-25T21:14:40.048Z,9.07
2022-07-25T21:17:08.675Z,9.27
2022-07-25T21:19:35.751Z,9.40
2022-07-25T21:22:02.932Z,8.97
2022-07-25T21:24:30.103Z,9.40
2022-07-25T21:26:57.102Z,8.87
2022-07-25T21:29:24.200Z,9.93
2022-07-25T21:31:51.361Z,9.30
2022-07-25T21:34:21.452Z,8.90
2022-07-25T21:36:48.477Z,8.80
2022-07-25T21:39:16.663Z,8.83
2022-07-25T21:41:44.949Z,8.80
2022-07-25T21:44:13.906Z,9.47
2022-07-25T21:46:40.919Z,9.60
2022-07-25T21:49:41.360Z,9.00
2022-07-25T21:52:13.932Z,9.80
2022-07-25T21:54:42.319Z,9.60
2022-07-25T21:57:13.511Z,8.70
2022-07-25T21:59:45.617Z,9.47
2022-07-25T22:02:13.356Z,9.70
2022-07-25T22:04:40.414Z,9.07
2022-07-25T22:07:08.070Z,9.30
2022-07-25T22:09:35.197Z,10.10
2022-07-25T22:12:02.869Z,9.80
2022-07-25T22:14:30.109Z,10.67
2022-07-25T22:16:57.198Z,10.70
2022-07-25T22:19:24.519Z,10.53
2022-07-25T22:21:51.677Z,10.90
2022-07-25T22:24:18.694Z,10.83
2022-07-25T22:26:45.757Z,10.63
2022-07-25T22:29:12.960Z,10.90
2022-07-25T22:31:40.157Z,9.97
2022-07-25T22:34:07.255Z,10.50
2022-07-25T22:36:34.340Z,10.40
2022-07-25T22:39:01.527Z,10.00
2022-07-25T22:41:28.526Z,10.77
2022-07-25T22:43:57.669Z,11.00
2022-07-25T22:46:30.815Z,10.77
2022-07-25T22:48:59.992Z,10.23
2022-07-25T22:51:29.247Z,9.10
2022-07-25T22:53:57.842Z,10.73
2022-07-25T22:56:25.948Z,10.57
2022-07-25T22:58:53.019Z,10.03
2022-07-25T23:01:20.653Z,10.07
2022-07-25T23:03:50.397Z,9.80
2022-07-25T23:06:19.108Z,9.37
2022-07-25T23:08:46.802Z,9.53
2022-07-25T23:11:14.325Z,10.07
2022-07-25T23:13:41.329Z,9.97
2022-07-25T23:16:10.158Z,9.77
2022-07-25T23:18:38.516Z,11.27
2022-07-25T23:21:06.648Z,10.63
2022-07-25T23:23:33.848Z,10.17
2022-07-25T23:26:01.296Z,10.10
2022-07-25T23:28:28.416Z,9.80
2022-07-25T23:30:55.463Z,10.30
2022-07-25T23:33:25.324Z,9.80
2022-07-25T23:35:53.603Z,10.50
2022-07-25T23:38:21.463Z,9.77
2022-07-25T23:40:49.001Z,10.47
2022-07-25T23:43:16.381Z,9.73
2022-07-25T23:46:00.790Z,9.83
2022-07-25T23:48:27.952Z,9.47
2022-07-25T23:50:54.943Z,11.20
2022-07-25T23:53:21.961Z,9.00
2022-07-25T23:55:48.920Z,10.30
2022-07-25T23:58:16.118Z,10.80
